sensor_id;sensor_type;location;lat;lon;timestamp;temperature;humidity
9762;DHT22;4920;49.594;11.022;2022-10-15T00:01:49;13.90;99.90
9762;DHT22;4920;49.594;11.022;2022-10-15T00:04:18;13.90;99.90
9762;DHT22;4920;49.594;11.022;2022-10-15T00:06:47;13.90;99.90
9762;DHT22;4920;49.594;11.022;2022-10-15T00:09:15;13.90;99.90
9762;DHT22;4920;49.594;11.022;2022-10-15T00:11:44;13.90;99.90
9762;DHT22;4920;49.594;11.022;2022-10-15T00:14:13;13.90;99.90
9762;DHT22;4920;49.594;11.022;2022-10-15T00:16:43;13.90;99.90
9762;DHT22;4920;49.594;11.022;2022-10-15T00:19:12;13.90;99.90
9762;DHT22;4920;49.594;11.022;2022-10-15T00:21:41;13.90;99.90
9762;DHT22;4920;49.594;11.022;2022-10-15T00:24:10;13.90;99.90
9762;DHT22;4920;49.594;11.022;2022-10-15T00:26:39;13.90;99.90
9762;DHT22;4920;49.594;11.022;2022-10-15T00:29:07;13.80;99.90
9762;DHT22;4920;49.594;11.022;2022-10-15T00:31:36;13.80;99.90
9762;DHT22;4920;49.594;11.022;2022-10-15T00:34:06;13.80;99.90
9762;DHT22;4920;49.594;11.022;2022-10-15T00:36:35;13.80;99.90
9762;DHT22;4920;49.594;11.022;2022-10-15T00:39:05;13.80;99.90
9762;DHT22;4920;49.594;11.022;2022-10-15T00:41:35;13.70;99.90
9762;DHT22;4920;49.594;11.022;2022-10-15T00:47:11;13.80;99.90
9762;DHT22;4920;49.594;11.022;2022-10-15T00:49:47;13.70;99.90
9762;DHT22;4920;49.594;11.022;2022-10-15T00:52:18;13.80;99.90
9762;DHT22;4920;49.594;11.022;2022-10-15T00:54:50;13.80;99.90
9762;DHT22;4920;49.594;11.022;2022-10-15T00:57:20;13.80;99.90
9762;DHT22;4920;49.594;11.022;2022-10-15T00:59:51;13.80;99.90
9762;DHT22;4920;49.594;11.022;2022-10-15T01:02:21;13.80;99.90
9762;DHT22;4920;49.594;11.022;2022-10-15T01:04:52;13.80;99.90
9762;DHT22;4920;49.594;11.022;2022-10-15T01:07:22;13.80;99.90
9762;DHT22;4920;49.594;11.022;2022-10-15T01:09:51;13.80;99.90
9762;DHT22;4920;49.594;11.022;2022-10-15T01:12:27;13.80;99.90
9762;DHT22;4920;49.594;11.022;2022-10-15T01:15:04;13.80;99.90
9762;DHT22;4920;49.594;11.022;2022-10-15T01:17:41;13.80;99.90
9762;DHT22;4920;49.594;11.022;2022-10-15T01:20:31;13.70;99.90
9762;DHT22;4920;49.594;11.022;2022-10-15T01:26:12;13.80;99.90
9762;DHT22;4920;49.594;11.022;2022-10-15T01:28:56;13.80;99.90
9762;DHT22;4920;49.594;11.022;2022-10-15T01:31:38;13.80;99.90
9762;DHT22;4920;49.594;11.022;2022-10-15T01:34:14;13.80;99.90
9762;DHT22;4920;49.594;11.022;2022-10-15T01:36:51;13.70;99.90
9762;DHT22;4920;49.594;11.022;2022-10-15T01:39:27;13.80;99.90
9762;DHT22;4920;49.594;11.022;2022-10-15T01:42:00;13.80;99.90
9762;DHT22;4920;49.594;11.022;2022-10-15T01:44:35;13.80;99.90
9762;DHT22;4920;49.594;11.022;2022-10-15T01:47:34;13.80;99.90
9762;DHT22;4920;49.594;11.022;2022-10-15T01:50:05;13.80;99.90
9762;DHT22;4920;49.594;11.022;2022-10-15T01:52:37;13.80;99.90
9762;DHT22;4920;49.594;11.022;2022-10-15T01:55:10;13.80;99.90
9762;DHT22;4920;49.594;11.022;2022-10-15T01:57:42;13.80;99.90
9762;DHT22;4920;49.594;11.022;2022-10-15T02:00:13;13.80;99.90
9762;DHT22;4920;49.594;11.022;2022-10-15T02:02:43;13.80;99.90
9762;DHT22;4920;49.594;11.022;2022-10-15T02:05:15;13.80;99.90
9762;DHT22;4920;49.594;11.022;2022-10-15T02:07:53;13.80;99.90
9762;DHT22;4920;49.594;11.022;2022-10-15T02:10:27;13.80;99.90
9762;DHT22;4920;49.594;11.022;2022-10-15T02:13:07;13.80;99.90
9762;DHT22;4920;49.594;11.022;2022-10-15T02:15:47;13.80;99.90
9762;DHT22;4920;49.594;11.022;2022-10-15T02:18:24;13.80;99.90
9762;DHT22;4920;49.594;11.022;2022-10-15T02:21:02;13.80;99.90
9762;DHT22;4920;49.594;11.022;2022-10-15T02:23:39;13.80;99.90
9762;DHT22;4920;49.594;11.022;2022-10-15T02:26:11;13.80;99.90
9762;DHT22;4920;49.594;11.022;2022-10-15T02:28:44;13.80;99.90
9762;DHT22;4920;49.594;11.022;2022-10-15T02:31:15;13.80;99.90
9762;DHT22;4920;49.594;11.022;2022-10-15T02:33:47;13.80;99.90
9762;DHT22;4920;49.594;11.022;2022-10-15T02:36:18;13.80;99.90
9762;DHT22;4920;49.594;11.022;2022-10-15T02:38:47;13.80;99.90
9762;DHT22;4920;49.594;11.022;2022-10-15T02:41:18;13.80;99.90
9762;DHT22;4920;49.594;11.022;2022-10-15T02:43:47;13.80;99.90
9762;DHT22;4920;49.594;11.022;2022-10-15T02:46:17;13.80;99.90
9762;DHT22;4920;49.594;11.022;2022-10-15T02:48:48;13.80;99.90
9762;DHT22;4920;49.594;11.022;2022-10-15T02:51:17;13.80;99.90
9762;DHT22;4920;49.594;11.022;2022-10-15T02:53:46;13.80;99.90
9762;DHT22;4920;49.594;11.022;2022-10-15T02:56:14;13.80;99.90
9762;DHT22;4920;49.594;11.022;2022-10-15T02:58:43;13.80;99.90
9762;DHT22;4920;49.594;11.022;2022-10-15T03:01:13;13.80;99.90
9762;DHT22;4920;49.594;11.022;2022-10-15T03:03:42;13.80;99.90
9762;DHT22;4920;49.594;11.022;2022-10-15T03:06:12;13.80;99.90
9762;DHT22;4920;49.594;11.022;2022-10-15T03:08:42;13.70;99.90
9762;DHT22;4920;49.594;11.022;2022-10-15T03:11:11;13.80;99.90
9762;DHT22;4920;49.594;11.022;2022-10-15T03:13:40;13.80;99.90
9762;DHT22;4920;49.594;11.022;2022-10-15T03:16:10;13.80;99.90
9762;DHT22;4920;49.594;11.022;2022-10-15T03:18:43;13.80;99.90
9762;DHT22;4920;49.594;11.022;2022-10-15T03:21:13;13.80;99.90
9762;DHT22;4920;49.594;11.022;2022-10-15T03:23:43;13.80;99.90
9762;DHT22;4920;49.594;11.022;2022-10-15T03:26:17;13.70;99.90
9762;DHT22;4920;49.594;11.022;2022-10-15T03:28:46;13.80;99.90
9762;DHT22;4920;49.594;11.022;2022-10-15T03:31:27;13.80;99.90
9762;DHT22;4920;49.594;11.022;2022-10-15T03:33:57;13.80;99.90
9762;DHT22;4920;49.594;11.022;2022-10-15T03:36:27;13.80;99.90
9762;DHT22;4920;49.594;11.022;2022-10-15T03:38:56;13.80;99.90
9762;DHT22;4920;49.594;11.022;2022-10-15T03:41:25;13.70;99.90
9762;DHT22;4920;49.594;11.022;2022-10-15T03:43:54;13.80;99.90
9762;DHT22;4920;49.594;11.022;2022-10-15T03:46:28;13.80;99.90
9762;DHT22;4920;49.594;11.022;2022-10-15T03:48:58;13.70;99.90
9762;DHT22;4920;49.594;11.022;2022-10-15T03:51:28;13.80;99.90
9762;DHT22;4920;49.594;11.022;2022-10-15T03:54:05;13.70;99.90
9762;DHT22;4920;49.594;11.022;2022-10-15T03:56:41;13.80;99.90
9762;DHT22;4920;49.594;11.022;2022-10-15T03:59:23;13.70;99.90
9762;DHT22;4920;49.594;11.022;2022-10-15T04:01:57;13.70;99.90
9762;DHT22;4920;49.594;11.022;2022-10-15T04:04:27;13.80;99.90
9762;DHT22;4920;49.594;11.022;2022-10-15T04:06:58;13.80;99.90
9762;DHT22;4920;49.594;11.022;2022-10-15T04:09:29;13.80;99.90
9762;DHT22;4920;49.594;11.022;2022-10-15T04:12:17;13.80;99.90
9762;DHT22;4920;49.594;11.022;2022-10-15T04:14:47;13.80;99.90
9762;DHT22;4920;49.594;11.022;2022-10-15T04:17:16;13.80;99.90
9762;DHT22;4920;49.594;11.022;2022-10-15T04:19:45;13.80;99.90
9762;DHT22;4920;49.594;11.022;2022-10-15T04:22:17;13.80;99.90
9762;DHT22;4920;49.594;11.022;2022-10-15T04:24:56;13.80;99.90
9762;DHT22;4920;49.594;11.022;2022-10-15T04:27:27;13.80;99.90
9762;DHT22;4920;49.594;11.022;2022-10-15T04:30:09;13.80;99.90
9762;DHT22;4920;49.594;11.022;2022-10-15T04:32:50;13.80;99.90
9762;DHT22;4920;49.594;11.022;2022-10-15T04:35:20;13.80;99.90
9762;DHT22;4920;49.594;11.022;2022-10-15T04:38:01;13.80;99.90
9762;DHT22;4920;49.594;11.022;2022-10-15T04:40:56;13.80;99.90
9762;DHT22;4920;49.594;11.022;2022-10-15T04:43:29;13.80;99.90
9762;DHT22;4920;49.594;11.022;2022-10-15T04:46:04;13.80;99.90
9762;DHT22;4920;49.594;11.022;2022-10-15T04:48:34;13.80;99.90
9762;DHT22;4920;49.594;11.022;2022-10-15T04:51:12;13.80;99.90
9762;DHT22;4920;49.594;11.022;2022-10-15T04:53:59;13.80;99.90
9762;DHT22;4920;49.594;11.022;2022-10-15T04:56:30;13.80;99.90
9762;DHT22;4920;49.594;11.022;2022-10-15T04:58:59;13.80;99.90
9762;DHT22;4920;49.594;11.022;2022-10-15T05:01:30;13.80;99.90
9762;DHT22;4920;49.594;11.022;2022-10-15T05:04:05;13.80;99.90
9762;DHT22;4920;49.594;11.022;2022-10-15T05:06:36;13.80;99.90
9762;DHT22;4920;49.594;11.022;2022-10-15T05:09:18;13.80;99.90
9762;DHT22;4920;49.594;11.022;2022-10-15T05:11:49;13.80;99.90
9762;DHT22;4920;49.594;11.022;2022-10-15T05:14:18;13.80;99.90
9762;DHT22;4920;49.594;11.022;2022-10-15T05:17:03;13.80;99.90
9762;DHT22;4920;49.594;11.022;2022-10-15T05:19:37;13.80;99.90
9762;DHT22;4920;49.594;11.022;2022-10-15T05:22:10;13.80;99.90
9762;DHT22;4920;49.594;11.022;2022-10-15T05:24:49;13.80;99.90
9762;DHT22;4920;49.594;11.022;2022-10-15T05:27:25;13.80;99.90
9762;DHT22;4920;49.594;11.022;2022-10-15T05:29:53;13.80;99.90
9762;DHT22;4920;49.594;11.022;2022-10-15T05:32:29;13.80;99.90
9762;DHT22;4920;49.594;11.022;2022-10-15T05:34:58;13.80;99.90
9762;DHT22;4920;49.594;11.022;2022-10-15T05:37:39;13.90;99.90
9762;DHT22;4920;49.594;11.022;2022-10-15T05:40:10;13.90;99.90
9762;DHT22;4920;49.594;11.022;2022-10-15T05:42:41;13.90;99.90
9762;DHT22;4920;49.594;11.022;2022-10-15T05:45:10;13.90;99.90
9762;DHT22;4920;49.594;11.022;2022-10-15T05:47:40;13.90;99.90
9762;DHT22;4920;49.594;11.022;2022-10-15T05:50:15;13.90;99.90
9762;DHT22;4920;49.594;11.022;2022-10-15T05:52:47;13.90;99.90
9762;DHT22;4920;49.594;11.022;2022-10-15T05:55:38;13.90;99.90
9762;DHT22;4920;49.594;11.022;2022-10-15T05:58:07;13.90;99.90
9762;DHT22;4920;49.594;11.022;2022-10-15T06:00:36;13.90;99.90
9762;DHT22;4920;49.594;11.022;2022-10-15T06:03:05;13.90;99.90
9762;DHT22;4920;49.594;11.022;2022-10-15T06:05:34;13.90;99.90
9762;DHT22;4920;49.594;11.022;2022-10-15T06:08:03;14.00;99.90
9762;DHT22;4920;49.594;11.022;2022-10-15T06:10:35;14.00;99.90
9762;DHT22;4920;49.594;11.022;2022-10-15T06:13:05;14.00;99.90
9762;DHT22;4920;49.594;11.022;2022-10-15T06:15:34;14.10;99.90
9762;DHT22;4920;49.594;11.022;2022-10-15T06:18:04;14.00;99.90
9762;DHT22;4920;49.594;11.022;2022-10-15T06:20:32;14.10;99.90
9762;DHT22;4920;49.594;11.022;2022-10-15T06:23:02;14.10;99.90
9762;DHT22;4920;49.594;11.022;2022-10-15T06:25:32;14.10;99.90
9762;DHT22;4920;49.594;11.022;2022-10-15T06:28:01;14.10;99.90
9762;DHT22;4920;49.594;11.022;2022-10-15T06:30:42;14.20;99.90
9762;DHT22;4920;49.594;11.022;2022-10-15T06:33:10;14.20;99.90
9762;DHT22;4920;49.594;11.022;2022-10-15T06:35:39;14.20;99.90
9762;DHT22;4920;49.594;11.022;2022-10-15T06:38:08;14.20;99.90
9762;DHT22;4920;49.594;11.022;2022-10-15T06:40:37;14.20;99.90
9762;DHT22;4920;49.594;11.022;2022-10-15T06:43:07;14.30;99.90
9762;DHT22;4920;49.594;11.022;2022-10-15T06:45:37;14.30;99.90
9762;DHT22;4920;49.594;11.022;2022-10-15T06:48:16;14.30;99.90
9762;DHT22;4920;49.594;11.022;2022-10-15T06:50:45;14.40;99.90
9762;DHT22;4920;49.594;11.022;2022-10-15T06:53:13;14.40;99.90
9762;DHT22;4920;49.594;11.022;2022-10-15T06:55:43;14.40;99.90
9762;DHT22;4920;49.594;11.022;2022-10-15T06:58:12;14.50;99.90
9762;DHT22;4920;49.594;11.022;2022-10-15T07:00:40;14.50;99.90
9762;DHT22;4920;49.594;11.022;2022-10-15T07:03:09;14.50;99.90
9762;DHT22;4920;49.594;11.022;2022-10-15T07:05:39;14.60;99.90
9762;DHT22;4920;49.594;11.022;2022-10-15T07:08:08;14.60;99.90
9762;DHT22;4920;49.594;11.022;2022-10-15T07:10:45;14.70;99.90
9762;DHT22;4920;49.594;11.022;2022-10-15T07:13:14;14.70;99.90
9762;DHT22;4920;49.594;11.022;2022-10-15T07:15:43;14.70;99.90
9762;DHT22;4920;49.594;11.022;2022-10-15T07:18:12;14.70;99.90
9762;DHT22;4920;49.594;11.022;2022-10-15T07:20:43;14.70;99.90
9762;DHT22;4920;49.594;11.022;2022-10-15T07:23:12;14.80;99.90
9762;DHT22;4920;49.594;11.022;2022-10-15T07:25:40;14.90;99.90
9762;DHT22;4920;49.594;11.022;2022-10-15T07:28:09;14.90;99.90
9762;DHT22;4920;49.594;11.022;2022-10-15T07:30:38;15.00;99.90
9762;DHT22;4920;49.594;11.022;2022-10-15T07:33:07;15.10;99.90
9762;DHT22;4920;49.594;11.022;2022-10-15T07:35:36;15.10;99.90
9762;DHT22;4920;49.594;11.022;2022-10-15T07:38:06;15.10;99.90
9762;DHT22;4920;49.594;11.022;2022-10-15T07:40:35;15.20;99.90
9762;DHT22;4920;49.594;11.022;2022-10-15T07:43:05;15.20;99.90
9762;DHT22;4920;49.594;11.022;2022-10-15T07:45:36;15.30;99.90
9762;DHT22;4920;49.594;11.022;2022-10-15T07:48:05;15.30;99.90
9762;DHT22;4920;49.594;11.022;2022-10-15T07:50:34;15.40;99.90
9762;DHT22;4920;49.594;11.022;2022-10-15T07:53:08;15.60;99.90
9762;DHT22;4920;49.594;11.022;2022-10-15T07:55:37;15.60;99.90
9762;DHT22;4920;49.594;11.022;2022-10-15T07:58:06;15.80;99.90
9762;DHT22;4920;49.594;11.022;2022-10-15T08:00:35;15.80;99.90
9762;DHT22;4920;49.594;11.022;2022-10-15T08:03:03;15.90;99.90
9762;DHT22;4920;49.594;11.022;2022-10-15T08:05:33;16.00;99.90
9762;DHT22;4920;49.594;11.022;2022-10-15T08:08:01;16.10;99.90
9762;DHT22;4920;49.594;11.022;2022-10-15T08:10:32;16.20;99.90
9762;DHT22;4920;49.594;11.022;2022-10-15T08:13:00;16.20;99.90
9762;DHT22;4920;49.594;11.022;2022-10-15T08:15:29;16.30;99.90
9762;DHT22;4920;49.594;11.022;2022-10-15T08:17:58;16.30;99.90
9762;DHT22;4920;49.594;11.022;2022-10-15T08:20:27;16.40;99.90
9762;DHT22;4920;49.594;11.022;2022-10-15T08:22:56;16.50;99.90
9762;DHT22;4920;49.594;11.022;2022-10-15T08:25:25;16.60;99.90
9762;DHT22;4920;49.594;11.022;2022-10-15T08:27:55;16.60;99.90
9762;DHT22;4920;49.594;11.022;2022-10-15T08:30:24;16.50;99.90
9762;DHT22;4920;49.594;11.022;2022-10-15T08:32:53;16.60;99.90
9762;DHT22;4920;49.594;11.022;2022-10-15T08:35:21;16.60;99.90
9762;DHT22;4920;49.594;11.022;2022-10-15T08:37:53;16.60;99.90
9762;DHT22;4920;49.594;11.022;2022-10-15T08:40:21;16.60;99.90
9762;DHT22;4920;49.594;11.022;2022-10-15T08:42:50;16.60;99.90
9762;DHT22;4920;49.594;11.022;2022-10-15T08:45:24;16.60;99.90
9762;DHT22;4920;49.594;11.022;2022-10-15T08:47:58;16.60;99.90
9762;DHT22;4920;49.594;11.022;2022-10-15T08:50:37;16.60;99.90
9762;DHT22;4920;49.594;11.022;2022-10-15T08:53:10;16.60;99.90
9762;DHT22;4920;49.594;11.022;2022-10-15T08:55:43;16.60;99.90
9762;DHT22;4920;49.594;11.022;2022-10-15T08:58:16;16.50;99.90
9762;DHT22;4920;49.594;11.022;2022-10-15T09:00:50;16.50;99.90
9762;DHT22;4920;49.594;11.022;2022-10-15T09:03:29;16.50;99.90
9762;DHT22;4920;49.594;11.022;2022-10-15T09:06:08;16.60;99.90
9762;DHT22;4920;49.594;11.022;2022-10-15T09:08:50;16.60;99.90
9762;DHT22;4920;49.594;11.022;2022-10-15T09:11:29;16.70;99.90
9762;DHT22;4920;49.594;11.022;2022-10-15T09:14:04;16.80;99.90
9762;DHT22;4920;49.594;11.022;2022-10-15T09:16:36;16.80;99.90
9762;DHT22;4920;49.594;11.022;2022-10-15T09:19:13;16.90;99.90
9762;DHT22;4920;49.594;11.022;2022-10-15T09:21:43;16.90;99.90
9762;DHT22;4920;49.594;11.022;2022-10-15T09:24:18;16.90;99.90
9762;DHT22;4920;49.594;11.022;2022-10-15T09:26:54;16.90;99.90
9762;DHT22;4920;49.594;11.022;2022-10-15T09:29:30;17.10;99.90
9762;DHT22;4920;49.594;11.022;2022-10-15T09:32:08;17.10;99.90
9762;DHT22;4920;49.594;11.022;2022-10-15T09:34:42;17.30;99.90
9762;DHT22;4920;49.594;11.022;2022-10-15T09:37:16;17.60;95.60
9762;DHT22;4920;49.594;11.022;2022-10-15T09:40:15;17.80;91.60
9762;DHT22;4920;49.594;11.022;2022-10-15T09:42:49;18.10;48.20
9762;DHT22;4920;49.594;11.022;2022-10-15T09:45:18;18.30;1.00
9762;DHT22;4920;49.594;11.022;2022-10-15T09:47:49;18.30;1.00
9762;DHT22;4920;49.594;11.022;2022-10-15T09:50:18;18.20;1.00
9762;DHT22;4920;49.594;11.022;2022-10-15T09:53:01;18.20;1.00
9762;DHT22;4920;49.594;11.022;2022-10-15T09:55:36;18.10;1.00
9762;DHT22;4920;49.594;11.022;2022-10-15T09:58:14;18.10;1.00
9762;DHT22;4920;49.594;11.022;2022-10-15T10:00:57;18.10;1.00
9762;DHT22;4920;49.594;11.022;2022-10-15T10:03:32;18.10;99.90
9762;DHT22;4920;49.594;11.022;2022-10-15T10:06:04;18.10;99.90
9762;DHT22;4920;49.594;11.022;2022-10-15T10:08:38;18.10;99.90
9762;DHT22;4920;49.594;11.022;2022-10-15T10:11:09;18.00;99.90
9762;DHT22;4920;49.594;11.022;2022-10-15T10:13:43;18.00;99.90
9762;DHT22;4920;49.594;11.022;2022-10-15T10:16:14;17.90;99.90
9762;DHT22;4920;49.594;11.022;2022-10-15T10:19:01;17.90;99.90
9762;DHT22;4920;49.594;11.022;2022-10-15T10:21:32;17.90;99.90
9762;DHT22;4920;49.594;11.022;2022-10-15T10:24:20;17.90;99.90
9762;DHT22;4920;49.594;11.022;2022-10-15T10:26:54;17.90;99.90
9762;DHT22;4920;49.594;11.022;2022-10-15T10:29:25;18.00;99.90
9762;DHT22;4920;49.594;11.022;2022-10-15T10:32:10;18.10;37.20
9762;DHT22;4920;49.594;11.022;2022-10-15T10:34:42;18.20;68.40
9762;DHT22;4920;49.594;11.022;2022-10-15T10:37:18;18.30;5.30
9762;DHT22;4920;49.594;11.022;2022-10-15T10:39:52;18.30;1.00
9762;DHT22;4920;49.594;11.022;2022-10-15T10:42:39;18.50;1.00
9762;DHT22;4920;49.594;11.022;2022-10-15T10:45:18;18.70;99.90
9762;DHT22;4920;49.594;11.022;2022-10-15T10:47:47;19.00;1.00
9762;DHT22;4920;49.594;11.022;2022-10-15T10:50:33;19.20;99.90
9762;DHT22;4920;49.594;11.022;2022-10-15T10:53:18;19.40;99.90
9762;DHT22;4920;49.594;11.022;2022-10-15T10:55:48;19.40;99.90
9762;DHT22;4920;49.594;11.022;2022-10-15T10:58:26;19.40;99.90
9762;DHT22;4920;49.594;11.022;2022-10-15T11:00:56;19.40;1.00
9762;DHT22;4920;49.594;11.022;2022-10-15T11:03:32;19.40;1.00
9762;DHT22;4920;49.594;11.022;2022-10-15T11:09:44;19.40;1.00
9762;DHT22;4920;49.594;11.022;2022-10-15T11:12:37;19.40;99.90
9762;DHT22;4920;49.594;11.022;2022-10-15T11:15:20;19.60;1.00
9762;DHT22;4920;49.594;11.022;2022-10-15T11:18:01;19.70;99.90
9762;DHT22;4920;49.594;11.022;2022-10-15T11:20:45;19.80;99.90
9762;DHT22;4920;49.594;11.022;2022-10-15T11:23:39;20.00;1.00
9762;DHT22;4920;49.594;11.022;2022-10-15T11:26:23;20.20;1.00
9762;DHT22;4920;49.594;11.022;2022-10-15T11:29:25;20.50;99.90
9762;DHT22;4920;49.594;11.022;2022-10-15T11:32:07;20.80;1.00
9762;DHT22;4920;49.594;11.022;2022-10-15T11:38:14;21.00;99.90
9762;DHT22;4920;49.594;11.022;2022-10-15T11:40:55;21.00;99.90
9762;DHT22;4920;49.594;11.022;2022-10-15T11:43:42;21.00;99.90
9762;DHT22;4920;49.594;11.022;2022-10-15T11:46:20;20.90;99.90
9762;DHT22;4920;49.594;11.022;2022-10-15T11:49:03;21.00;99.90
9762;DHT22;4920;49.594;11.022;2022-10-15T11:51:52;21.10;99.90
9762;DHT22;4920;49.594;11.022;2022-10-15T11:54:29;21.10;99.90
9762;DHT22;4920;49.594;11.022;2022-10-15T11:57:01;21.10;99.90
9762;DHT22;4920;49.594;11.022;2022-10-15T11:59:36;21.10;99.90
9762;DHT22;4920;49.594;11.022;2022-10-15T12:02:12;21.10;99.90
9762;DHT22;4920;49.594;11.022;2022-10-15T12:04:45;21.10;99.90
9762;DHT22;4920;49.594;11.022;2022-10-15T12:07:19;21.10;99.90
9762;DHT22;4920;49.594;11.022;2022-10-15T12:09:52;20.90;99.90
9762;DHT22;4920;49.594;11.022;2022-10-15T12:12:32;20.80;99.90
9762;DHT22;4920;49.594;11.022;2022-10-15T12:15:21;20.80;99.90
9762;DHT22;4920;49.594;11.022;2022-10-15T12:17:55;20.60;99.90
9762;DHT22;4920;49.594;11.022;2022-10-15T12:20:27;20.50;99.90
9762;DHT22;4920;49.594;11.022;2022-10-15T12:22:58;20.40;99.90
9762;DHT22;4920;49.594;11.022;2022-10-15T12:25:42;20.20;99.90
9762;DHT22;4920;49.594;11.022;2022-10-15T12:28:20;20.20;99.90
9762;DHT22;4920;49.594;11.022;2022-10-15T12:30:56;20.10;99.90
9762;DHT22;4920;49.594;11.022;2022-10-15T12:33:32;20.10;99.90
9762;DHT22;4920;49.594;11.022;2022-10-15T12:36:03;20.10;1.00
9762;DHT22;4920;49.594;11.022;2022-10-15T12:38:37;20.40;1.00
9762;DHT22;4920;49.594;11.022;2022-10-15T12:41:09;20.60;99.90
9762;DHT22;4920;49.594;11.022;2022-10-15T12:43:42;21.00;21.00
9762;DHT22;4920;49.594;11.022;2022-10-15T12:46:13;21.30;1.00
9762;DHT22;4920;49.594;11.022;2022-10-15T12:48:43;21.60;99.90
9762;DHT22;4920;49.594;11.022;2022-10-15T12:51:36;21.80;99.90
9762;DHT22;4920;49.594;11.022;2022-10-15T12:54:34;21.70;99.90
9762;DHT22;4920;49.594;11.022;2022-10-15T13:00:38;21.30;1.00
9762;DHT22;4920;49.594;11.022;2022-10-15T13:09:21;21.10;99.90
9762;DHT22;4920;49.594;11.022;2022-10-15T13:11:53;21.10;40.60
9762;DHT22;4920;49.594;11.022;2022-10-15T13:14:31;21.00;99.90
9762;DHT22;4920;49.594;11.022;2022-10-15T13:17:04;20.90;99.90
9762;DHT22;4920;49.594;11.022;2022-10-15T13:19:37;20.70;99.90
9762;DHT22;4920;49.594;11.022;2022-10-15T13:22:20;20.70;1.00
9762;DHT22;4920;49.594;11.022;2022-10-15T13:24:49;20.70;99.90
9762;DHT22;4920;49.594;11.022;2022-10-15T13:27:23;20.50;99.90
9762;DHT22;4920;49.594;11.022;2022-10-15T13:29:53;20.40;1.00
9762;DHT22;4920;49.594;11.022;2022-10-15T13:32:23;20.20;1.00
9762;DHT22;4920;49.594;11.022;2022-10-15T13:34:56;20.20;99.90
9762;DHT22;4920;49.594;11.022;2022-10-15T13:37:30;20.30;99.90
9762;DHT22;4920;49.594;11.022;2022-10-15T13:40:00;20.40;99.90
9762;DHT22;4920;49.594;11.022;2022-10-15T13:42:34;20.40;1.00
9762;DHT22;4920;49.594;11.022;2022-10-15T13:45:14;20.40;1.00
9762;DHT22;4920;49.594;11.022;2022-10-15T13:47:46;20.30;99.90
9762;DHT22;4920;49.594;11.022;2022-10-15T13:50:20;20.30;1.00
9762;DHT22;4920;49.594;11.022;2022-10-15T13:52:51;20.40;99.90
9762;DHT22;4920;49.594;11.022;2022-10-15T13:55:23;20.50;99.90
9762;DHT22;4920;49.594;11.022;2022-10-15T13:57:56;20.50;1.00
9762;DHT22;4920;49.594;11.022;2022-10-15T14:00:29;20.40;1.00
9762;DHT22;4920;49.594;11.022;2022-10-15T14:03:15;20.40;99.90
9762;DHT22;4920;49.594;11.022;2022-10-15T14:05:47;20.20;99.90
9762;DHT22;4920;49.594;11.022;2022-10-15T14:08:22;20.10;1.00
9762;DHT22;4920;49.594;11.022;2022-10-15T14:10:52;20.10;1.00
9762;DHT22;4920;49.594;11.022;2022-10-15T14:13:21;20.10;1.00
9762;DHT22;4920;49.594;11.022;2022-10-15T14:16:01;20.10;99.90
9762;DHT22;4920;49.594;11.022;2022-10-15T14:18:42;20.10;1.00
9762;DHT22;4920;49.594;11.022;2022-10-15T14:21:18;19.90;3.10
9762;DHT22;4920;49.594;11.022;2022-10-15T14:23:48;19.80;96.80
9762;DHT22;4920;49.594;11.022;2022-10-15T14:26:22;19.70;99.90
9762;DHT22;4920;49.594;11.022;2022-10-15T14:28:51;19.60;99.90
9762;DHT22;4920;49.594;11.022;2022-10-15T14:31:30;19.60;99.90
9762;DHT22;4920;49.594;11.022;2022-10-15T14:33:59;19.60;99.90
9762;DHT22;4920;49.594;11.022;2022-10-15T14:36:31;19.70;1.00
9762;DHT22;4920;49.594;11.022;2022-10-15T14:39:26;19.80;1.00
9762;DHT22;4920;49.594;11.022;2022-10-15T14:41:56;19.90;99.90
9762;DHT22;4920;49.594;11.022;2022-10-15T14:44:25;20.10;99.90
9762;DHT22;4920;49.594;11.022;2022-10-15T14:47:00;20.10;99.90
9762;DHT22;4920;49.594;11.022;2022-10-15T14:49:32;20.00;99.90
9762;DHT22;4920;49.594;11.022;2022-10-15T14:52:06;20.00;99.90
9762;DHT22;4920;49.594;11.022;2022-10-15T14:54:40;19.90;1.00
9762;DHT22;4920;49.594;11.022;2022-10-15T14:57:16;19.80;1.00
9762;DHT22;4920;49.594;11.022;2022-10-15T14:59:47;19.80;1.00
9762;DHT22;4920;49.594;11.022;2022-10-15T15:02:16;19.80;1.00
9762;DHT22;4920;49.594;11.022;2022-10-15T15:04:50;19.80;1.00
9762;DHT22;4920;49.594;11.022;2022-10-15T15:07:21;19.80;1.00
9762;DHT22;4920;49.594;11.022;2022-10-15T15:09:50;19.80;1.00
9762;DHT22;4920;49.594;11.022;2022-10-15T15:12:22;19.80;1.00
9762;DHT22;4920;49.594;11.022;2022-10-15T15:14:54;19.80;1.00
9762;DHT22;4920;49.594;11.022;2022-10-15T15:17:25;19.70;1.00
9762;DHT22;4920;49.594;11.022;2022-10-15T15:19:55;19.60;1.00
9762;DHT22;4920;49.594;11.022;2022-10-15T15:22:29;19.50;1.00
9762;DHT22;4920;49.594;11.022;2022-10-15T15:24:59;19.40;1.00
9762;DHT22;4920;49.594;11.022;2022-10-15T15:27:31;19.40;79.50
9762;DHT22;4920;49.594;11.022;2022-10-15T15:30:04;19.20;99.90
9762;DHT22;4920;49.594;11.022;2022-10-15T15:32:33;19.10;1.00
9762;DHT22;4920;49.594;11.022;2022-10-15T15:35:14;19.00;99.90
9762;DHT22;4920;49.594;11.022;2022-10-15T15:37:45;18.90;1.00
9762;DHT22;4920;49.594;11.022;2022-10-15T15:40:14;18.80;1.00
9762;DHT22;4920;49.594;11.022;2022-10-15T15:42:43;18.70;1.00
9762;DHT22;4920;49.594;11.022;2022-10-15T15:45:18;18.60;5.70
9762;DHT22;4920;49.594;11.022;2022-10-15T15:47:47;18.60;1.00
9762;DHT22;4920;49.594;11.022;2022-10-15T15:50:17;18.50;99.90
9762;DHT22;4920;49.594;11.022;2022-10-15T15:52:48;18.40;99.90
9762;DHT22;4920;49.594;11.022;2022-10-15T15:55:18;18.30;1.00
9762;DHT22;4920;49.594;11.022;2022-10-15T15:57:46;18.30;36.60
9762;DHT22;4920;49.594;11.022;2022-10-15T16:00:16;18.20;1.00
9762;DHT22;4920;49.594;11.022;2022-10-15T16:02:44;18.20;99.90
9762;DHT22;4920;49.594;11.022;2022-10-15T16:05:15;18.20;99.90
9762;DHT22;4920;49.594;11.022;2022-10-15T16:07:45;18.10;1.00
9762;DHT22;4920;49.594;11.022;2022-10-15T16:10:15;18.00;99.90
9762;DHT22;4920;49.594;11.022;2022-10-15T16:12:44;18.00;99.90
9762;DHT22;4920;49.594;11.022;2022-10-15T16:15:13;17.90;1.00
9762;DHT22;4920;49.594;11.022;2022-10-15T16:17:42;17.90;1.00
9762;DHT22;4920;49.594;11.022;2022-10-15T16:20:11;17.90;1.00
9762;DHT22;4920;49.594;11.022;2022-10-15T16:22:40;17.80;1.00
9762;DHT22;4920;49.594;11.022;2022-10-15T16:25:09;17.80;99.90
9762;DHT22;4920;49.594;11.022;2022-10-15T16:27:39;17.80;99.90
9762;DHT22;4920;49.594;11.022;2022-10-15T16:30:09;17.70;99.90
9762;DHT22;4920;49.594;11.022;2022-10-15T16:32:38;17.70;99.90
9762;DHT22;4920;49.594;11.022;2022-10-15T16:35:07;17.70;99.90
9762;DHT22;4920;49.594;11.022;2022-10-15T16:37:37;17.70;1.00
9762;DHT22;4920;49.594;11.022;2022-10-15T16:40:07;17.70;1.00
9762;DHT22;4920;49.594;11.022;2022-10-15T16:42:36;17.60;1.00
9762;DHT22;4920;49.594;11.022;2022-10-15T16:45:08;17.50;1.00
9762;DHT22;4920;49.594;11.022;2022-10-15T16:47:37;17.50;42.40
9762;DHT22;4920;49.594;11.022;2022-10-15T16:50:08;17.40;1.00
9762;DHT22;4920;49.594;11.022;2022-10-15T16:52:37;17.30;1.00